sensor_id;sensor_type;location;lat;lon;timestamp;P1;durP1;ratioP1;P2;durP2;ratioP2
50773;SDS011;36745;48.544;8.918;2023-03-11T00:01:35;2.78;;;1.00;;
50773;SDS011;36745;48.544;8.918;2023-03-11T00:04:58;1.73;;;1.00;;
50773;SDS011;36745;48.544;8.918;2023-03-11T00:08:19;1.17;;;1.05;;
50773;SDS011;36745;48.544;8.918;2023-03-11T00:11:41;1.73;;;0.88;;
50773;SDS011;36745;48.544;8.918;2023-03-11T00:15:01;1.20;;;1.10;;
50773;SDS011;36745;48.544;8.918;2023-03-11T00:18:22;1.35;;;1.20;;
50773;SDS011;36745;48.544;8.918;2023-03-11T00:21:45;1.20;;;1.10;;
50773;SDS011;36745;48.544;8.918;2023-03-11T00:25:05;3.03;;;1.60;;
50773;SDS011;36745;48.544;8.918;2023-03-11T00:28:24;1.65;;;1.50;;
50773;SDS011;36745;48.544;8.918;2023-03-11T00:31:45;2.33;;;1.17;;
50773;SDS011;36745;48.544;8.918;2023-03-11T00:35:06;1.85;;;1.50;;
50773;SDS011;36745;48.544;8.918;2023-03-11T00:38:26;3.50;;;1.30;;
50773;SDS011;36745;48.544;8.918;2023-03-11T00:41:46;2.70;;;1.30;;
50773;SDS011;36745;48.544;8.918;2023-03-11T00:45:06;3.28;;;1.50;;
50773;SDS011;36745;48.544;8.918;2023-03-11T00:48:26;3.15;;;1.40;;
50773;SDS011;36745;48.544;8.918;2023-03-11T00:51:46;2.33;;;1.40;;
50773;SDS011;36745;48.544;8.918;2023-03-11T00:55:05;2.05;;;1.67;;
50773;SDS011;36745;48.544;8.918;2023-03-11T00:58:26;2.95;;;1.60;;
50773;SDS011;36745;48.544;8.918;2023-03-11T01:01:47;3.85;;;1.80;;
50773;SDS011;36745;48.544;8.918;2023-03-11T01:05:07;2.55;;;1.70;;
50773;SDS011;36745;48.544;8.918;2023-03-11T01:08:27;3.00;;;1.50;;
50773;SDS011;36745;48.544;8.918;2023-03-11T01:11:47;3.17;;;1.80;;
50773;SDS011;36745;48.544;8.918;2023-03-11T01:15:08;3.17;;;1.73;;
50773;SDS011;36745;48.544;8.918;2023-03-11T01:18:32;3.00;;;1.70;;
50773;SDS011;36745;48.544;8.918;2023-03-11T01:21:52;1.80;;;1.60;;
50773;SDS011;36745;48.544;8.918;2023-03-11T01:25:13;2.58;;;1.85;;
50773;SDS011;36745;48.544;8.918;2023-03-11T01:28:33;1.55;;;1.40;;
50773;SDS011;36745;48.544;8.918;2023-03-11T01:31:53;2.08;;;1.75;;
50773;SDS011;36745;48.544;8.918;2023-03-11T01:35:14;3.08;;;1.50;;
50773;SDS011;36745;48.544;8.918;2023-03-11T01:38:37;3.08;;;1.60;;
50773;SDS011;36745;48.544;8.918;2023-03-11T01:41:57;2.60;;;2.08;;
50773;SDS011;36745;48.544;8.918;2023-03-11T01:48:52;2.55;;;1.52;;
50773;SDS011;36745;48.544;8.918;2023-03-11T01:52:14;3.40;;;1.70;;
50773;SDS011;36745;48.544;8.918;2023-03-11T01:55:34;4.57;;;2.35;;
50773;SDS011;36745;48.544;8.918;2023-03-11T01:58:54;4.00;;;2.00;;
50773;SDS011;36745;48.544;8.918;2023-03-11T02:02:35;4.00;;;2.10;;
50773;SDS011;36745;48.544;8.918;2023-03-11T02:06:02;3.13;;;2.20;;
50773;SDS011;36745;48.544;8.918;2023-03-11T02:09:24;2.30;;;2.08;;
50773;SDS011;36745;48.544;8.918;2023-03-11T02:12:45;3.83;;;2.50;;
50773;SDS011;36745;48.544;8.918;2023-03-11T02:16:06;3.05;;;2.10;;
50773;SDS011;36745;48.544;8.918;2023-03-11T02:23:20;2.70;;;1.95;;
50773;SDS011;36745;48.544;8.918;2023-03-11T02:30:25;3.67;;;1.77;;
50773;SDS011;36745;48.544;8.918;2023-03-11T02:33:45;3.50;;;1.45;;
50773;SDS011;36745;48.544;8.918;2023-03-11T02:37:10;2.25;;;1.50;;
50773;SDS011;36745;48.544;8.918;2023-03-11T02:44:07;2.35;;;1.48;;
50773;SDS011;36745;48.544;8.918;2023-03-11T02:47:30;2.03;;;1.40;;
50773;SDS011;36745;48.544;8.918;2023-03-11T02:50:51;2.45;;;1.55;;
50773;SDS011;36745;48.544;8.918;2023-03-11T02:54:11;2.97;;;1.73;;
50773;SDS011;36745;48.544;8.918;2023-03-11T02:57:31;3.22;;;1.70;;
50773;SDS011;36745;48.544;8.918;2023-03-11T03:00:51;4.00;;;1.80;;
50773;SDS011;36745;48.544;8.918;2023-03-11T03:04:10;2.72;;;1.85;;
50773;SDS011;36745;48.544;8.918;2023-03-11T03:07:30;3.22;;;1.40;;
50773;SDS011;36745;48.544;8.918;2023-03-11T03:10:50;4.55;;;1.65;;
50773;SDS011;36745;48.544;8.918;2023-03-11T03:14:10;4.15;;;1.77;;
50773;SDS011;36745;48.544;8.918;2023-03-11T03:17:30;3.65;;;1.55;;
50773;SDS011;36745;48.544;8.918;2023-03-11T03:20:50;3.90;;;1.77;;
50773;SDS011;36745;48.544;8.918;2023-03-11T03:24:10;3.92;;;1.80;;
50773;SDS011;36745;48.544;8.918;2023-03-11T03:27:30;2.58;;;1.77;;
50773;SDS011;36745;48.544;8.918;2023-03-11T03:30:51;3.63;;;1.88;;
50773;SDS011;36745;48.544;8.918;2023-03-11T03:34:11;4.63;;;1.70;;
50773;SDS011;36745;48.544;8.918;2023-03-11T03:37:32;2.63;;;1.85;;
50773;SDS011;36745;48.544;8.918;2023-03-11T03:40:53;3.53;;;1.50;;
50773;SDS011;36745;48.544;8.918;2023-03-11T03:44:13;3.10;;;1.52;;
50773;SDS011;36745;48.544;8.918;2023-03-11T03:47:33;3.05;;;1.60;;
50773;SDS011;36745;48.544;8.918;2023-03-11T03:50:54;2.38;;;1.73;;
50773;SDS011;36745;48.544;8.918;2023-03-11T03:54:14;2.17;;;1.58;;
50773;SDS011;36745;48.544;8.918;2023-03-11T03:57:33;3.17;;;1.90;;
50773;SDS011;36745;48.544;8.918;2023-03-11T04:00:56;1.88;;;1.60;;
50773;SDS011;36745;48.544;8.918;2023-03-11T04:04:16;4.50;;;1.77;;
50773;SDS011;36745;48.544;8.918;2023-03-11T04:07:36;2.63;;;1.45;;
50773;SDS011;36745;48.544;8.918;2023-03-11T04:10:56;2.22;;;1.40;;
50773;SDS011;36745;48.544;8.918;2023-03-11T04:14:16;3.40;;;1.70;;
50773;SDS011;36745;48.544;8.918;2023-03-11T04:17:36;3.65;;;1.50;;
50773;SDS011;36745;48.544;8.918;2023-03-11T04:20:56;3.92;;;1.60;;
50773;SDS011;36745;48.544;8.918;2023-03-11T04:24:17;3.13;;;1.48;;
50773;SDS011;36745;48.544;8.918;2023-03-11T04:27:36;2.03;;;1.50;;
50773;SDS011;36745;48.544;8.918;2023-03-11T04:31:04;2.97;;;1.60;;
50773;SDS011;36745;48.544;8.918;2023-03-11T04:34:24;3.45;;;1.50;;
50773;SDS011;36745;48.544;8.918;2023-03-11T04:37:44;5.47;;;1.75;;
50773;SDS011;36745;48.544;8.918;2023-03-11T04:41:04;8.73;;;2.13;;
50773;SDS011;36745;48.544;8.918;2023-03-11T04:44:25;6.75;;;2.42;;
50773;SDS011;36745;48.544;8.918;2023-03-11T04:47:48;3.75;;;2.17;;
50773;SDS011;36745;48.544;8.918;2023-03-11T04:51:09;5.15;;;2.05;;
50773;SDS011;36745;48.544;8.918;2023-03-11T04:54:29;4.68;;;2.45;;
50773;SDS011;36745;48.544;8.918;2023-03-11T04:57:49;5.93;;;2.35;;
50773;SDS011;36745;48.544;8.918;2023-03-11T05:01:08;3.10;;;1.90;;
50773;SDS011;36745;48.544;8.918;2023-03-11T05:04:28;3.55;;;1.80;;
50773;SDS011;36745;48.544;8.918;2023-03-11T05:07:48;18.90;;;5.30;;
50773;SDS011;36745;48.544;8.918;2023-03-11T05:11:08;30.30;;;9.18;;
50773;SDS011;36745;48.544;8.918;2023-03-11T05:14:28;20.67;;;6.40;;
50773;SDS011;36745;48.544;8.918;2023-03-11T05:17:47;11.30;;;4.70;;
50773;SDS011;36745;48.544;8.918;2023-03-11T05:21:07;10.00;;;4.18;;
50773;SDS011;36745;48.544;8.918;2023-03-11T05:24:27;11.98;;;5.88;;
50773;SDS011;36745;48.544;8.918;2023-03-11T05:27:47;11.93;;;3.83;;
50773;SDS011;36745;48.544;8.918;2023-03-11T05:31:10;13.13;;;4.55;;
50773;SDS011;36745;48.544;8.918;2023-03-11T05:34:30;6.03;;;2.70;;
50773;SDS011;36745;48.544;8.918;2023-03-11T05:37:49;5.28;;;2.55;;
50773;SDS011;36745;48.544;8.918;2023-03-11T05:41:10;4.68;;;2.50;;
50773;SDS011;36745;48.544;8.918;2023-03-11T05:44:31;5.88;;;2.35;;
50773;SDS011;36745;48.544;8.918;2023-03-11T05:47:51;3.00;;;1.73;;
50773;SDS011;36745;48.544;8.918;2023-03-11T05:51:11;7.00;;;1.80;;
50773;SDS011;36745;48.544;8.918;2023-03-11T05:54:31;4.15;;;2.20;;
50773;SDS011;36745;48.544;8.918;2023-03-11T05:57:51;5.00;;;1.98;;
50773;SDS011;36745;48.544;8.918;2023-03-11T06:01:12;9.73;;;3.90;;
50773;SDS011;36745;48.544;8.918;2023-03-11T06:04:33;5.13;;;2.15;;
50773;SDS011;36745;48.544;8.918;2023-03-11T06:07:52;5.95;;;3.03;;
50773;SDS011;36745;48.544;8.918;2023-03-11T06:11:12;11.90;;;4.30;;
50773;SDS011;36745;48.544;8.918;2023-03-11T06:14:32;6.70;;;2.90;;
50773;SDS011;36745;48.544;8.918;2023-03-11T06:17:52;13.95;;;6.53;;
50773;SDS011;36745;48.544;8.918;2023-03-11T06:21:14;12.95;;;7.22;;
50773;SDS011;36745;48.544;8.918;2023-03-11T06:24:35;8.32;;;5.50;;
50773;SDS011;36745;48.544;8.918;2023-03-11T06:27:55;17.20;;;8.38;;
50773;SDS011;36745;48.544;8.918;2023-03-11T06:31:16;20.35;;;8.82;;
50773;SDS011;36745;48.544;8.918;2023-03-11T06:34:40;19.38;;;9.75;;
50773;SDS011;36745;48.544;8.918;2023-03-11T06:38:00;20.90;;;10.63;;
50773;SDS011;36745;48.544;8.918;2023-03-11T06:41:20;21.85;;;9.45;;
50773;SDS011;36745;48.544;8.918;2023-03-11T06:44:40;32.13;;;12.88;;
50773;SDS011;36745;48.544;8.918;2023-03-11T06:48:00;20.85;;;9.85;;
50773;SDS011;36745;48.544;8.918;2023-03-11T06:51:20;19.00;;;10.82;;
50773;SDS011;36745;48.544;8.918;2023-03-11T06:54:40;15.88;;;5.45;;
50773;SDS011;36745;48.544;8.918;2023-03-11T06:58:00;11.40;;;4.60;;
50773;SDS011;36745;48.544;8.918;2023-03-11T07:01:23;9.30;;;4.40;;
50773;SDS011;36745;48.544;8.918;2023-03-11T07:04:44;4.30;;;1.80;;
50773;SDS011;36745;48.544;8.918;2023-03-11T07:08:07;7.65;;;2.38;;
50773;SDS011;36745;48.544;8.918;2023-03-11T07:11:27;4.55;;;2.00;;
50773;SDS011;36745;48.544;8.918;2023-03-11T07:14:47;4.70;;;2.00;;
50773;SDS011;36745;48.544;8.918;2023-03-11T07:18:07;4.03;;;1.63;;
50773;SDS011;36745;48.544;8.918;2023-03-11T07:21:26;4.20;;;1.70;;
50773;SDS011;36745;48.544;8.918;2023-03-11T07:24:47;6.03;;;2.45;;
50773;SDS011;36745;48.544;8.918;2023-03-11T07:28:07;7.25;;;2.97;;
50773;SDS011;36745;48.544;8.918;2023-03-11T07:31:28;6.38;;;3.30;;
50773;SDS011;36745;48.544;8.918;2023-03-11T07:34:50;6.10;;;3.63;;
50773;SDS011;36745;48.544;8.918;2023-03-11T07:38:10;3.50;;;2.20;;
50773;SDS011;36745;48.544;8.918;2023-03-11T07:41:31;6.80;;;1.88;;
50773;SDS011;36745;48.544;8.918;2023-03-11T07:44:51;9.32;;;2.15;;
50773;SDS011;36745;48.544;8.918;2023-03-11T07:48:11;6.80;;;2.20;;
50773;SDS011;36745;48.544;8.918;2023-03-11T07:51:33;31.10;;;19.63;;
50773;SDS011;36745;48.544;8.918;2023-03-11T07:54:54;5.45;;;2.33;;
50773;SDS011;36745;48.544;8.918;2023-03-11T07:58:13;8.48;;;2.88;;
50773;SDS011;36745;48.544;8.918;2023-03-11T08:01:33;9.30;;;1.98;;
50773;SDS011;36745;48.544;8.918;2023-03-11T08:04:59;8.90;;;2.22;;
50773;SDS011;36745;48.544;8.918;2023-03-11T08:08:18;6.20;;;2.63;;
50773;SDS011;36745;48.544;8.918;2023-03-11T08:11:38;5.60;;;1.92;;
50773;SDS011;36745;48.544;8.918;2023-03-11T08:14:58;10.07;;;2.03;;
50773;SDS011;36745;48.544;8.918;2023-03-11T08:18:18;6.38;;;1.63;;
50773;SDS011;36745;48.544;8.918;2023-03-11T08:21:38;21.15;;;7.07;;
50773;SDS011;36745;48.544;8.918;2023-03-11T08:24:58;54.55;;;20.33;;
50773;SDS011;36745;48.544;8.918;2023-03-11T08:28:18;7.78;;;2.95;;
50773;SDS011;36745;48.544;8.918;2023-03-11T08:31:38;6.38;;;1.20;;
50773;SDS011;36745;48.544;8.918;2023-03-11T08:34:57;7.85;;;3.22;;
50773;SDS011;36745;48.544;8.918;2023-03-11T08:38:17;6.60;;;1.48;;
50773;SDS011;36745;48.544;8.918;2023-03-11T08:41:37;7.45;;;1.52;;
50773;SDS011;36745;48.544;8.918;2023-03-11T08:44:57;3.17;;;1.40;;
50773;SDS011;36745;48.544;8.918;2023-03-11T08:48:17;7.47;;;4.13;;
50773;SDS011;36745;48.544;8.918;2023-03-11T08:51:36;17.75;;;13.98;;
50773;SDS011;36745;48.544;8.918;2023-03-11T08:54:56;4.90;;;1.40;;
50773;SDS011;36745;48.544;8.918;2023-03-11T08:58:16;5.20;;;1.85;;
50773;SDS011;36745;48.544;8.918;2023-03-11T09:01:36;7.35;;;6.57;;
50773;SDS011;36745;48.544;8.918;2023-03-11T09:04:56;14.32;;;3.85;;
50773;SDS011;36745;48.544;8.918;2023-03-11T09:08:16;7.32;;;1.60;;
50773;SDS011;36745;48.544;8.918;2023-03-11T09:11:36;7.50;;;5.03;;
50773;SDS011;36745;48.544;8.918;2023-03-11T09:14:55;8.20;;;2.50;;
50773;SDS011;36745;48.544;8.918;2023-03-11T09:18:15;4.18;;;1.73;;
50773;SDS011;36745;48.544;8.918;2023-03-11T09:21:36;5.30;;;1.33;;
50773;SDS011;36745;48.544;8.918;2023-03-11T09:24:56;8.35;;;1.83;;
50773;SDS011;36745;48.544;8.918;2023-03-11T09:28:16;3.47;;;1.50;;
50773;SDS011;36745;48.544;8.918;2023-03-11T09:31:36;5.10;;;1.80;;
50773;SDS011;36745;48.544;8.918;2023-03-11T09:34:56;3.92;;;1.30;;
50773;SDS011;36745;48.544;8.918;2023-03-11T09:38:17;2.03;;;1.13;;
50773;SDS011;36745;48.544;8.918;2023-03-11T09:41:41;5.50;;;1.70;;
50773;SDS011;36745;48.544;8.918;2023-03-11T09:48:41;2.85;;;1.30;;
50773;SDS011;36745;48.544;8.918;2023-03-11T09:52:11;5.55;;;1.20;;
50773;SDS011;36745;48.544;8.918;2023-03-11T09:55:37;39.92;;;21.27;;
50773;SDS011;36745;48.544;8.918;2023-03-11T09:59:07;4.90;;;2.40;;
50773;SDS011;36745;48.544;8.918;2023-03-11T10:02:33;2.85;;;1.20;;
50773;SDS011;36745;48.544;8.918;2023-03-11T10:09:44;6.75;;;3.10;;
50773;SDS011;36745;48.544;8.918;2023-03-11T10:13:24;8.65;;;3.63;;
50773;SDS011;36745;48.544;8.918;2023-03-11T10:17:01;6.47;;;2.40;;
50773;SDS011;36745;48.544;8.918;2023-03-11T10:24:24;4.33;;;1.90;;
50773;SDS011;36745;48.544;8.918;2023-03-11T10:27:53;3.83;;;1.30;;
50773;SDS011;36745;48.544;8.918;2023-03-11T10:34:54;3.35;;;1.50;;
50773;SDS011;36745;48.544;8.918;2023-03-11T10:41:41;3.72;;;1.17;;
50773;SDS011;36745;48.544;8.918;2023-03-11T10:45:10;2.83;;;1.00;;
50773;SDS011;36745;48.544;8.918;2023-03-11T10:48:31;3.08;;;1.15;;
50773;SDS011;36745;48.544;8.918;2023-03-11T10:51:52;2.33;;;0.80;;
50773;SDS011;36745;48.544;8.918;2023-03-11T10:55:14;2.83;;;0.90;;
50773;SDS011;36745;48.544;8.918;2023-03-11T10:58:38;7.75;;;4.90;;
50773;SDS011;36745;48.544;8.918;2023-03-11T11:02:24;5.15;;;1.20;;
50773;SDS011;36745;48.544;8.918;2023-03-11T11:06:02;2.70;;;1.20;;
50773;SDS011;36745;48.544;8.918;2023-03-11T11:09:23;2.38;;;0.95;;
50773;SDS011;36745;48.544;8.918;2023-03-11T11:16:20;3.65;;;1.02;;
50773;SDS011;36745;48.544;8.918;2023-03-11T11:19:44;3.40;;;1.13;;
50773;SDS011;36745;48.544;8.918;2023-03-11T11:23:11;2.25;;;1.20;;
50773;SDS011;36745;48.544;8.918;2023-03-11T11:27:03;2.28;;;1.00;;
50773;SDS011;36745;48.544;8.918;2023-03-11T11:30:34;3.75;;;1.30;;
50773;SDS011;36745;48.544;8.918;2023-03-11T11:33:54;4.22;;;1.15;;
50773;SDS011;36745;48.544;8.918;2023-03-11T11:37:14;2.42;;;1.17;;
50773;SDS011;36745;48.544;8.918;2023-03-11T11:40:34;2.53;;;0.90;;
50773;SDS011;36745;48.544;8.918;2023-03-11T11:43:55;3.55;;;1.20;;
50773;SDS011;36745;48.544;8.918;2023-03-11T11:47:20;3.45;;;0.90;;
50773;SDS011;36745;48.544;8.918;2023-03-11T11:50:44;2.72;;;1.00;;
50773;SDS011;36745;48.544;8.918;2023-03-11T11:57:47;4.07;;;1.27;;
50773;SDS011;36745;48.544;8.918;2023-03-11T12:04:51;2.47;;;1.33;;
50773;SDS011;36745;48.544;8.918;2023-03-11T12:08:19;4.00;;;1.10;;
50773;SDS011;36745;48.544;8.918;2023-03-11T12:26:09;7.68;;;3.72;;
50773;SDS011;36745;48.544;8.918;2023-03-11T12:29:39;5.32;;;2.00;;
50773;SDS011;36745;48.544;8.918;2023-03-11T12:33:04;6.05;;;2.60;;
50773;SDS011;36745;48.544;8.918;2023-03-11T12:36:31;3.45;;;1.30;;
50773;SDS011;36745;48.544;8.918;2023-03-11T12:39:53;3.27;;;1.30;;
50773;SDS011;36745;48.544;8.918;2023-03-11T13:01:14;5.30;;;1.40;;
50773;SDS011;36745;48.544;8.918;2023-03-11T13:08:21;1.73;;;1.00;;
50773;SDS011;36745;48.544;8.918;2023-03-11T13:11:44;4.13;;;1.20;;
50773;SDS011;36745;48.544;8.918;2023-03-11T13:18:37;3.92;;;1.27;;
50773;SDS011;36745;48.544;8.918;2023-03-11T13:21:58;5.13;;;1.40;;
50773;SDS011;36745;48.544;8.918;2023-03-11T13:28:59;5.22;;;1.42;;
50773;SDS011;36745;48.544;8.918;2023-03-11T13:43:51;3.55;;;1.67;;
50773;SDS011;36745;48.544;8.918;2023-03-11T13:47:14;2.53;;;1.38;;
50773;SDS011;36745;48.544;8.918;2023-03-11T13:50:37;7.03;;;1.80;;
50773;SDS011;36745;48.544;8.918;2023-03-11T13:57:38;3.05;;;1.25;;
50773;SDS011;36745;48.544;8.918;2023-03-11T14:00:58;4.95;;;1.48;;
50773;SDS011;36745;48.544;8.918;2023-03-11T14:04:22;3.40;;;1.40;;
50773;SDS011;36745;48.544;8.918;2023-03-11T14:07:46;3.72;;;1.20;;
50773;SDS011;36745;48.544;8.918;2023-03-11T14:14:53;3.63;;;1.80;;
50773;SDS011;36745;48.544;8.918;2023-03-11T14:18:27;5.95;;;1.38;;
50773;SDS011;36745;48.544;8.918;2023-03-11T14:21:50;6.15;;;1.90;;
50773;SDS011;36745;48.544;8.918;2023-03-11T14:25:12;7.45;;;2.55;;
50773;SDS011;36745;48.544;8.918;2023-03-11T14:28:37;5.65;;;1.67;;
50773;SDS011;36745;48.544;8.918;2023-03-11T14:35:39;2.88;;;1.38;;
50773;SDS011;36745;48.544;8.918;2023-03-11T14:38:59;4.38;;;1.90;;
50773;SDS011;36745;48.544;8.918;2023-03-11T14:45:53;5.97;;;1.50;;
50773;SDS011;36745;48.544;8.918;2023-03-11T14:49:14;2.47;;;1.52;;
50773;SDS011;36745;48.544;8.918;2023-03-11T14:52:42;4.50;;;1.55;;
50773;SDS011;36745;48.544;8.918;2023-03-11T14:56:12;5.45;;;2.10;;
50773;SDS011;36745;48.544;8.918;2023-03-11T14:59:39;3.72;;;1.20;;
50773;SDS011;36745;48.544;8.918;2023-03-11T15:06:35;3.05;;;1.48;;
50773;SDS011;36745;48.544;8.918;2023-03-11T15:09:58;4.37;;;1.70;;
50773;SDS011;36745;48.544;8.918;2023-03-11T15:13:17;6.07;;;1.67;;
50773;SDS011;36745;48.544;8.918;2023-03-11T15:16:42;5.07;;;1.40;;
50773;SDS011;36745;48.544;8.918;2023-03-11T15:20:02;3.15;;;1.52;;
50773;SDS011;36745;48.544;8.918;2023-03-11T15:23:24;3.72;;;1.67;;
50773;SDS011;36745;48.544;8.918;2023-03-11T15:26:50;4.38;;;1.42;;
50773;SDS011;36745;48.544;8.918;2023-03-11T15:30:23;3.80;;;1.63;;
50773;SDS011;36745;48.544;8.918;2023-03-11T15:33:43;2.88;;;1.48;;
50773;SDS011;36745;48.544;8.918;2023-03-11T15:37:04;5.22;;;1.50;;
50773;SDS011;36745;48.544;8.918;2023-03-11T15:40:38;3.65;;;1.67;;
50773;SDS011;36745;48.544;8.918;2023-03-11T15:43:57;3.80;;;1.50;;
50773;SDS011;36745;48.544;8.918;2023-03-11T15:47:20;2.15;;;1.40;;
50773;SDS011;36745;48.544;8.918;2023-03-11T15:50:45;2.40;;;1.60;;
50773;SDS011;36745;48.544;8.918;2023-03-11T15:54:07;4.10;;;1.58;;
50773;SDS011;36745;48.544;8.918;2023-03-11T15:57:27;4.50;;;1.65;;
50773;SDS011;36745;48.544;8.918;2023-03-11T16:00:49;3.03;;;1.70;;
50773;SDS011;36745;48.544;8.918;2023-03-11T16:04:15;2.97;;;1.50;;
50773;SDS011;36745;48.544;8.918;2023-03-11T16:07:37;4.65;;;1.92;;
50773;SDS011;36745;48.544;8.918;2023-03-11T16:10:57;2.75;;;1.35;;
50773;SDS011;36745;48.544;8.918;2023-03-11T16:14:17;6.43;;;1.40;;
50773;SDS011;36745;48.544;8.918;2023-03-11T16:17:38;4.18;;;1.52;;
50773;SDS011;36745;48.544;8.918;2023-03-11T16:20:58;2.50;;;1.10;;
50773;SDS011;36745;48.544;8.918;2023-03-11T16:24:19;2.90;;;1.48;;
50773;SDS011;36745;48.544;8.918;2023-03-11T16:27:41;3.97;;;1.35;;
50773;SDS011;36745;48.544;8.918;2023-03-11T16:31:00;4.63;;;1.48;;
50773;SDS011;36745;48.544;8.918;2023-03-11T16:34:20;4.22;;;1.50;;
50773;SDS011;36745;48.544;8.918;2023-03-11T16:37:40;8.27;;;1.60;;
50773;SDS011;36745;48.544;8.918;2023-03-11T16:41:02;4.00;;;1.55;;
50773;SDS011;36745;48.544;8.918;2023-03-11T16:44:22;5.53;;;2.03;;
50773;SDS011;36745;48.544;8.918;2023-03-11T16:47:42;5.82;;;1.88;;
50773;SDS011;36745;48.544;8.918;2023-03-11T16:51:02;9.63;;;2.30;;
50773;SDS011;36745;48.544;8.918;2023-03-11T16:54:21;5.82;;;2.25;;
50773;SDS011;36745;48.544;8.918;2023-03-11T16:57:41;5.35;;;1.80;;
50773;SDS011;36745;48.544;8.918;2023-03-11T17:01:01;9.18;;;2.58;;
50773;SDS011;36745;48.544;8.918;2023-03-11T17:04:21;7.82;;;2.42;;
50773;SDS011;36745;48.544;8.918;2023-03-11T17:07:41;7.18;;;2.35;;
50773;SDS011;36745;48.544;8.918;2023-03-11T17:11:01;4.93;;;1.88;;
50773;SDS011;36745;48.544;8.918;2023-03-11T17:14:21;4.20;;;1.75;;
50773;SDS011;36745;48.544;8.918;2023-03-11T17:17:40;3.22;;;1.30;;
50773;SDS011;36745;48.544;8.918;2023-03-11T17:21:04;9.55;;;1.88;;
50773;SDS011;36745;48.544;8.918;2023-03-11T17:24:25;8.93;;;1.85;;
50773;SDS011;36745;48.544;8.918;2023-03-11T17:27:44;7.30;;;2.20;;
50773;SDS011;36745;48.544;8.918;2023-03-11T17:31:04;12.30;;;7.13;;
50773;SDS011;36745;48.544;8.918;2023-03-11T17:34:29;70.25;;;39.30;;
50773;SDS011;36745;48.544;8.918;2023-03-11T17:37:49;73.55;;;38.55;;
50773;SDS011;36745;48.544;8.918;2023-03-11T17:41:09;78.28;;;44.45;;
50773;SDS011;36745;48.544;8.918;2023-03-11T17:44:30;33.53;;;22.02;;
50773;SDS011;36745;48.544;8.918;2023-03-11T17:47:50;4.95;;;2.85;;
50773;SDS011;36745;48.544;8.918;2023-03-11T17:51:11;6.70;;;2.30;;
50773;SDS011;36745;48.544;8.918;2023-03-11T17:54:32;5.18;;;2.30;;
50773;SDS011;36745;48.544;8.918;2023-03-11T17:57:52;6.78;;;1.50;;
50773;SDS011;36745;48.544;8.918;2023-03-11T18:01:13;6.60;;;2.00;;
50773;SDS011;36745;48.544;8.918;2023-03-11T18:04:38;6.43;;;1.70;;
50773;SDS011;36745;48.544;8.918;2023-03-11T18:08:00;4.75;;;1.83;;
50773;SDS011;36745;48.544;8.918;2023-03-11T18:11:21;8.63;;;2.00;;
50773;SDS011;36745;48.544;8.918;2023-03-11T18:14:43;8.27;;;2.38;;
50773;SDS011;36745;48.544;8.918;2023-03-11T18:18:03;5.70;;;2.20;;
50773;SDS011;36745;48.544;8.918;2023-03-11T18:21:23;11.43;;;2.20;;
50773;SDS011;36745;48.544;8.918;2023-03-11T18:24:45;10.23;;;2.40;;
50773;SDS011;36745;48.544;8.918;2023-03-11T18:28:05;2.88;;;1.63;;
50773;SDS011;36745;48.544;8.918;2023-03-11T18:31:26;4.82;;;2.10;;
50773;SDS011;36745;48.544;8.918;2023-03-11T18:34:50;8.60;;;3.97;;
50773;SDS011;36745;48.544;8.918;2023-03-11T18:38:10;9.53;;;2.73;;
50773;SDS011;36745;48.544;8.918;2023-03-11T18:41:31;8.73;;;2.50;;
50773;SDS011;36745;48.544;8.918;2023-03-11T18:44:52;5.78;;;2.40;;
50773;SDS011;36745;48.544;8.918;2023-03-11T18:48:12;7.28;;;2.25;;
50773;SDS011;36745;48.544;8.918;2023-03-11T18:51:32;6.88;;;3.45;;
50773;SDS011;36745;48.544;8.918;2023-03-11T18:54:51;7.38;;;2.45;;
50773;SDS011;36745;48.544;8.918;2023-03-11T18:58:11;10.18;;;3.47;;
50773;SDS011;36745;48.544;8.918;2023-03-11T19:01:31;8.82;;;4.15;;
50773;SDS011;36745;48.544;8.918;2023-03-11T19:04:52;13.20;;;6.38;;
50773;SDS011;36745;48.544;8.918;2023-03-11T19:08:12;15.95;;;3.00;;
50773;SDS011;36745;48.544;8.918;2023-03-11T19:11:33;12.27;;;3.88;;
50773;SDS011;36745;48.544;8.918;2023-03-11T19:14:53;11.63;;;3.90;;
50773;SDS011;36745;48.544;8.918;2023-03-11T19:18:13;9.43;;;3.60;;
50773;SDS011;36745;48.544;8.918;2023-03-11T19:21:33;22.08;;;10.82;;
50773;SDS011;36745;48.544;8.918;2023-03-11T19:24:53;12.82;;;8.80;;
50773;SDS011;36745;48.544;8.918;2023-03-11T19:28:12;9.32;;;3.60;;
50773;SDS011;36745;48.544;8.918;2023-03-11T19:31:32;8.43;;;3.05;;
50773;SDS011;36745;48.544;8.918;2023-03-11T19:34:52;8.65;;;3.40;;
50773;SDS011;36745;48.544;8.918;2023-03-11T19:38:11;8.55;;;4.20;;
50773;SDS011;36745;48.544;8.918;2023-03-11T19:41:31;14.25;;;4.90;;
50773;SDS011;36745;48.544;8.918;2023-03-11T19:44:51;12.90;;;4.80;;
50773;SDS011;36745;48.544;8.918;2023-03-11T19:48:12;9.80;;;5.57;;
50773;SDS011;36745;48.544;8.918;2023-03-11T19:51:34;12.02;;;6.00;;
50773;SDS011;36745;48.544;8.918;2023-03-11T19:54:53;10.45;;;5.10;;
50773;SDS011;36745;48.544;8.918;2023-03-11T19:58:14;17.50;;;7.65;;
50773;SDS011;36745;48.544;8.918;2023-03-11T20:01:34;12.95;;;5.65;;
50773;SDS011;36745;48.544;8.918;2023-03-11T20:04:54;15.45;;;6.20;;
50773;SDS011;36745;48.544;8.918;2023-03-11T20:08:15;15.98;;;6.57;;
50773;SDS011;36745;48.544;8.918;2023-03-11T20:11:39;18.88;;;7.80;;
50773;SDS011;36745;48.544;8.918;2023-03-11T20:14:59;14.65;;;6.82;;
50773;SDS011;36745;48.544;8.918;2023-03-11T20:18:19;13.95;;;5.65;;
50773;SDS011;36745;48.544;8.918;2023-03-11T20:21:38;11.48;;;5.10;;
50773;SDS011;36745;48.544;8.918;2023-03-11T20:24:58;9.45;;;5.40;;
50773;SDS011;36745;48.544;8.918;2023-03-11T20:28:18;9.15;;;4.57;;
50773;SDS011;36745;48.544;8.918;2023-03-11T20:31:38;14.07;;;6.00;;
50773;SDS011;36745;48.544;8.918;2023-03-11T20:34:58;10.57;;;5.03;;
50773;SDS011;36745;48.544;8.918;2023-03-11T20:38:18;14.27;;;5.80;;
50773;SDS011;36745;48.544;8.918;2023-03-11T20:41:38;16.98;;;7.93;;
50773;SDS011;36745;48.544;8.918;2023-03-11T20:44:59;11.57;;;6.22;;
50773;SDS011;36745;48.544;8.918;2023-03-11T20:48:18;13.88;;;5.40;;
50773;SDS011;36745;48.544;8.918;2023-03-11T20:51:38;14.40;;;7.00;;
50773;SDS011;36745;48.544;8.918;2023-03-11T20:54:58;10.65;;;5.88;;
50773;SDS011;36745;48.544;8.918;2023-03-11T20:58:18;11.77;;;5.93;;
50773;SDS011;36745;48.544;8.918;2023-03-11T21:01:38;14.65;;;6.40;;
50773;SDS011;36745;48.544;8.918;2023-03-11T21:04:58;12.23;;;6.57;;
50773;SDS011;36745;48.544;8.918;2023-03-11T21:08:18;13.63;;;6.90;;
50773;SDS011;36745;48.544;8.918;2023-03-11T21:11:38;20.85;;;8.70;;
50773;SDS011;36745;48.544;8.918;2023-03-11T21:15:01;15.85;;;8.02;;
50773;SDS011;36745;48.544;8.918;2023-03-11T21:18:21;14.00;;;6.75;;
50773;SDS011;36745;48.544;8.918;2023-03-11T21:21:41;16.70;;;7.05;;
50773;SDS011;36745;48.544;8.918;2023-03-11T21:25:01;15.15;;;7.03;;
50773;SDS011;36745;48.544;8.918;2023-03-11T21:28:21;13.52;;;5.85;;
50773;SDS011;36745;48.544;8.918;2023-03-11T21:31:41;12.52;;;6.63;;
50773;SDS011;36745;48.544;8.918;2023-03-11T21:35:00;12.93;;;5.80;;
50773;SDS011;36745;48.544;8.918;2023-03-11T21:38:21;11.00;;;5.72;;
50773;SDS011;36745;48.544;8.918;2023-03-11T21:41:41;15.10;;;6.28;;
50773;SDS011;36745;48.544;8.918;2023-03-11T21:45:01;13.07;;;5.82;;
50773;SDS011;36745;48.544;8.918;2023-03-11T21:48:21;14.32;;;6.38;;
50773;SDS011;36745;48.544;8.918;2023-03-11T21:51:41;10.70;;;5.88;;
50773;SDS011;36745;48.544;8.918;2023-03-11T21:55:01;13.35;;;6.82;;
50773;SDS011;36745;48.544;8.918;2023-03-11T21:58:21;12.45;;;7.18;;
50773;SDS011;36745;48.544;8.918;2023-03-11T22:01:40;13.93;;;6.13;;
50773;SDS011;36745;48.544;8.918;2023-03-11T22:05:00;17.58;;;5.97;;